createdAt,value
2018-08-25T00:00:26.106Z,0.00
2018-08-25T00:01:26.079Z,0.00
2018-08-25T00:02:26.058Z,0.00
2018-08-25T00:03:26.054Z,0.00
2018-08-25T00:04:26.037Z,0.00
2018-08-25T00:05:26.055Z,0.00
2018-08-25T00:06:26.016Z,0.00
2018-08-25T00:07:26.006Z,0.00
2018-08-25T00:08:25.996Z,0.00
2018-08-25T00:09:25.981Z,0.00
2018-08-25T00:10:25.996Z,0.00
2018-08-25T00:11:25.963Z,0.00
2018-08-25T00:12:25.945Z,0.00
2018-08-25T00:13:25.939Z,0.00
2018-08-25T00:14:25.922Z,0.00
2018-08-25T00:15:25.932Z,0.00
2018-08-25T00:16:25.906Z,0.00
2018-08-25T00:17:25.885Z,0.00
2018-08-25T00:18:25.883Z,0.00
2018-08-25T00:19:25.862Z,0.00
2018-08-25T00:20:25.876Z,0.00
2018-08-25T00:21:25.847Z,0.00
2018-08-25T00:22:25.830Z,0.00
2018-08-25T00:23:25.819Z,0.00
2018-08-25T00:24:25.812Z,0.00
2018-08-25T00:25:25.823Z,0.00
2018-08-25T00:26:25.785Z,0.00
2018-08-25T00:27:25.777Z,0.00
2018-08-25T00:28:25.757Z,0.00
2018-08-25T00:29:25.754Z,0.00
2018-08-25T00:30:25.756Z,0.00
2018-08-25T00:31:25.722Z,0.00
2018-08-25T00:32:25.719Z,0.00
2018-08-25T00:33:25.700Z,0.00
2018-08-25T00:34:25.697Z,0.00
2018-08-25T00:35:25.702Z,0.00
2018-08-25T00:36:25.664Z,0.00
2018-08-25T00:37:25.654Z,0.00
2018-08-25T00:38:25.647Z,0.00
2018-08-25T00:39:25.630Z,0.00
2018-08-25T00:40:25.650Z,0.00
2018-08-25T00:41:25.606Z,0.00
2018-08-25T00:42:25.598Z,0.00
2018-08-25T00:43:25.589Z,0.00
2018-08-25T00:44:25.574Z,0.00
2018-08-25T00:45:25.591Z,0.00
2018-08-25T00:46:25.557Z,0.00
2018-08-25T00:47:25.539Z,0.00
2018-08-25T00:48:25.530Z,0.00
2018-08-25T00:49:25.522Z,0.00
2018-08-25T00:50:25.524Z,0.00
2018-08-25T00:51:25.499Z,0.00
2018-08-25T00:52:25.482Z,0.00
2018-08-25T00:53:25.466Z,0.00
2018-08-25T00:54:25.459Z,0.00
2018-08-25T00:55:25.483Z,0.00
2018-08-25T00:56:25.437Z,0.00
2018-08-25T00:57:25.447Z,0.00
2018-08-25T00:58:25.415Z,0.00
2018-08-25T00:59:25.553Z,0.00
2018-08-25T01:00:25.391Z,0.00
2018-08-25T01:01:25.406Z,0.00
2018-08-25T01:02:25.362Z,0.00
2018-08-25T01:03:25.350Z,0.00
2018-08-25T01:04:25.352Z,0.00
2018-08-25T01:05:25.362Z,0.00
2018-08-25T01:06:25.317Z,0.00
2018-08-25T01:07:25.313Z,0.00
2018-08-25T01:08:25.293Z,0.00
2018-08-25T01:09:25.291Z,0.00
2018-08-25T01:10:25.274Z,0.00
2018-08-25T01:11:25.285Z,0.00
2018-08-25T01:12:25.256Z,0.00
2018-08-25T01:13:25.239Z,0.00
2018-08-25T01:14:25.230Z,0.00
2018-08-25T01:15:25.214Z,0.00
2018-08-25T01:16:25.232Z,0.00
2018-08-25T01:17:25.187Z,0.00
2018-08-25T01:18:25.193Z,0.00
2018-08-25T01:19:25.167Z,0.00
2018-08-25T01:20:25.165Z,0.00
2018-08-25T01:21:25.168Z,0.00
2018-08-25T01:22:25.140Z,0.00
2018-08-25T01:23:25.128Z,0.00
2018-08-25T01:24:25.109Z,0.00
2018-08-25T01:25:25.135Z,0.00
2018-08-25T01:26:25.083Z,0.00
2018-08-25T01:27:25.077Z,0.00
2018-08-25T01:28:25.062Z,0.00
2018-08-25T01:29:25.054Z,0.00
2018-08-25T01:30:25.040Z,0.00
2018-08-25T01:31:25.048Z,0.00
2018-08-25T01:32:25.015Z,0.00
2018-08-25T01:33:25.006Z,0.00
2018-08-25T01:34:24.993Z,0.00
2018-08-25T01:35:24.991Z,0.00
2018-08-25T01:36:24.990Z,0.00
2018-08-25T01:37:24.957Z,0.00
2018-08-25T01:38:24.943Z,0.00
2018-08-25T01:39:24.933Z,0.00
2018-08-25T01:40:24.929Z,0.00
2018-08-25T01:41:24.938Z,0.00
2018-08-25T01:42:24.906Z,0.00
2018-08-25T01:43:24.889Z,0.00
2018-08-25T01:44:24.880Z,0.00
2018-08-25T01:45:24.865Z,0.00
2018-08-25T01:46:24.876Z,0.00
2018-08-25T01:47:24.848Z,0.00
2018-08-25T01:48:24.832Z,0.00
2018-08-25T01:49:24.818Z,0.00
2018-08-25T01:50:24.808Z,0.00
2018-08-25T01:51:24.814Z,0.00
2018-08-25T01:52:24.810Z,0.00
2018-08-25T01:53:24.772Z,0.00
2018-08-25T01:54:24.765Z,0.00
2018-08-25T01:55:24.747Z,0.00
2018-08-25T01:56:24.762Z,0.00
2018-08-25T01:57:24.725Z,0.00
2018-08-25T01:58:24.715Z,0.00
2018-08-25T01:59:24.704Z,0.00
2018-08-25T02:00:24.691Z,0.00
2018-08-25T02:01:24.703Z,0.00
2018-08-25T02:02:24.665Z,0.00
2018-08-25T02:03:24.657Z,0.00
2018-08-25T02:04:24.648Z,0.00
2018-08-25T02:05:24.634Z,0.00
2018-08-25T02:06:24.653Z,0.00
2018-08-25T02:07:24.613Z,0.00
2018-08-25T02:08:24.593Z,0.00
2018-08-25T02:09:24.584Z,0.00
2018-08-25T02:10:24.575Z,0.00
2018-08-25T02:11:24.596Z,0.00
2018-08-25T02:12:24.548Z,0.00
2018-08-25T02:13:24.534Z,0.00
2018-08-25T02:14:24.532Z,0.00
2018-08-25T02:15:24.515Z,0.00
2018-08-25T02:16:24.505Z,0.00
2018-08-25T02:17:24.524Z,0.00
2018-08-25T02:18:24.477Z,0.00
2018-08-25T02:19:24.469Z,0.00
2018-08-25T02:20:24.454Z,0.00
2018-08-25T02:21:24.453Z,0.00
2018-08-25T02:22:24.458Z,0.00
2018-08-25T02:23:24.420Z,0.00
2018-08-25T02:24:24.416Z,0.00
2018-08-25T02:25:24.399Z,0.00
2018-08-25T02:26:24.394Z,0.00
2018-08-25T02:27:24.404Z,0.00
2018-08-25T02:28:24.361Z,0.00
2018-08-25T02:29:24.361Z,0.00
2018-08-25T02:30:24.338Z,0.00
2018-08-25T02:31:24.334Z,0.00
2018-08-25T02:32:24.340Z,0.00
2018-08-25T02:33:24.308Z,0.00
2018-08-25T02:34:24.293Z,0.00
2018-08-25T02:35:24.285Z,0.00
2018-08-25T02:36:24.275Z,0.00
2018-08-25T02:37:24.280Z,0.00
2018-08-25T02:38:24.260Z,0.00
2018-08-25T02:39:24.235Z,0.00
2018-08-25T02:40:24.228Z,0.00
2018-08-25T02:41:24.215Z,0.00
2018-08-25T02:42:24.225Z,0.00
2018-08-25T02:43:24.186Z,0.00
2018-08-25T02:44:24.182Z,0.00
2018-08-25T02:45:24.168Z,0.00
2018-08-25T02:46:24.157Z,0.00
2018-08-25T02:47:24.166Z,0.00
2018-08-25T02:48:24.131Z,0.00
2018-08-25T02:49:24.125Z,0.00
2018-08-25T02:50:24.105Z,0.00
2018-08-25T02:51:24.100Z,0.00
2018-08-25T02:52:24.110Z,0.00
2018-08-25T02:53:24.075Z,0.00
2018-08-25T02:54:24.063Z,0.00
2018-08-25T02:55:24.045Z,0.00
2018-08-25T02:56:24.045Z,0.00
2018-08-25T02:57:24.044Z,0.00
2018-08-25T02:58:24.019Z,0.00
2018-08-25T02:59:24.004Z,0.00
2018-08-25T03:00:23.998Z,0.00
2018-08-25T03:01:23.985Z,0.00
2018-08-25T03:02:23.988Z,0.00
2018-08-25T03:03:23.957Z,0.00
2018-08-25T03:04:23.943Z,0.00
2018-08-25T03:05:23.929Z,0.00
2018-08-25T03:06:23.925Z,0.00
2018-08-25T03:07:23.936Z,0.00
2018-08-25T03:08:23.896Z,0.00
2018-08-25T03:09:23.881Z,0.00
2018-08-25T03:10:23.879Z,0.00
2018-08-25T03:11:23.860Z,0.00
2018-08-25T03:12:23.880Z,0.00
2018-08-25T03:13:23.842Z,0.00
2018-08-25T03:14:23.822Z,0.00
2018-08-25T03:15:23.816Z,0.00
2018-08-25T03:16:23.802Z,0.00
2018-08-25T03:17:23.814Z,0.00
2018-08-25T03:18:23.776Z,0.00
2018-08-25T03:19:23.765Z,0.00
2018-08-25T03:20:23.755Z,0.00
2018-08-25T03:21:23.740Z,0.00
2018-08-25T03:22:23.755Z,0.00
2018-08-25T03:23:23.719Z,0.00
2018-08-25T03:24:23.706Z,0.00
2018-08-25T03:25:23.697Z,0.00
2018-08-25T03:26:23.676Z,0.00
2018-08-25T03:27:23.671Z,0.00
2018-08-25T03:28:23.679Z,0.00
2018-08-25T03:29:23.639Z,0.00
2018-08-25T03:30:23.637Z,0.00
2018-08-25T03:31:23.619Z,0.00
2018-08-25T03:32:23.609Z,0.00
2018-08-25T03:33:23.619Z,0.00
2018-08-25T03:34:23.586Z,0.00
2018-08-25T03:35:23.569Z,0.00
2018-08-25T03:36:23.565Z,0.00
2018-08-25T03:37:23.545Z,0.00
2018-08-25T03:38:23.562Z,0.00
2018-08-25T03:39:23.525Z,0.00
2018-08-25T03:40:23.517Z,0.00
2018-08-25T03:41:23.495Z,0.00
2018-08-25T03:42:23.489Z,0.00
2018-08-25T03:43:23.500Z,0.00
2018-08-25T03:44:23.469Z,0.00
2018-08-25T03:45:23.451Z,0.00
2018-08-25T03:46:23.446Z,0.00
2018-08-25T03:47:23.424Z,0.00
2018-08-25T03:48:23.444Z,0.00
2018-08-25T03:49:23.400Z,0.00
2018-08-25T03:50:23.397Z,0.00
2018-08-25T03:51:23.378Z,0.00
2018-08-25T03:52:23.370Z,0.00
2018-08-25T03:53:23.378Z,0.00
2018-08-25T03:54:23.346Z,0.00
2018-08-25T03:55:23.343Z,0.00
2018-08-25T03:56:23.321Z,0.00
2018-08-25T03:57:23.311Z,0.00
2018-08-25T03:58:23.321Z,0.00
2018-08-25T03:59:23.279Z,0.00
2018-08-25T04:00:23.278Z,0.00
2018-08-25T04:01:23.266Z,0.00
2018-08-25T04:02:23.252Z,0.00
2018-08-25T04:03:23.263Z,0.00
2018-08-25T04:04:23.222Z,0.00
2018-08-25T04:05:23.212Z,0.00
2018-08-25T04:06:23.202Z,0.00
2018-08-25T04:07:23.185Z,0.00
2018-08-25T04:08:23.204Z,0.00
2018-08-25T04:09:23.167Z,0.00
2018-08-25T04:10:23.150Z,0.00
2018-08-25T04:11:23.142Z,0.00
2018-08-25T04:12:23.133Z,0.00
2018-08-25T04:13:23.137Z,0.00
2018-08-25T04:14:23.107Z,0.00
2018-08-25T04:15:23.091Z,0.00
2018-08-25T04:16:23.083Z,0.00
2018-08-25T04:17:23.073Z,0.00
2018-08-25T04:18:23.075Z,0.00
2018-08-25T04:19:23.040Z,0.00
2018-08-25T04:20:23.035Z,0.00
2018-08-25T04:21:23.021Z,0.00
2018-08-25T04:22:23.164Z,0.00
2018-08-25T04:23:23.024Z,0.00
2018-08-25T04:24:22.978Z,0.00
2018-08-25T04:25:22.970Z,0.00
2018-08-25T04:26:22.964Z,0.00
2018-08-25T04:27:22.945Z,0.00
2018-08-25T04:28:22.960Z,0.00
2018-08-25T04:29:22.928Z,0.00
2018-08-25T04:30:22.906Z,0.00
2018-08-25T04:31:22.900Z,0.00
2018-08-25T04:32:22.885Z,0.00
2018-08-25T04:33:22.921Z,0.00
2018-08-25T04:34:22.868Z,0.00
2018-08-25T04:35:22.848Z,0.00
2018-08-25T04:36:22.845Z,0.00
2018-08-25T04:37:22.824Z,5.62
2018-08-25T04:38:22.820Z,5.62
2018-08-25T04:39:22.833Z,5.62
2018-08-25T04:40:22.788Z,5.62
2018-08-25T04:41:22.898Z,5.62
2018-08-25T04:42:22.767Z,11.25
2018-08-25T04:43:22.762Z,11.25
2018-08-25T04:44:22.772Z,16.88
2018-08-25T04:45:22.735Z,11.25
2018-08-25T04:46:22.723Z,16.88
2018-08-25T04:47:22.722Z,16.88
2018-08-25T04:48:22.698Z,16.88
2018-08-25T04:49:22.704Z,22.50
2018-08-25T04:50:22.670Z,22.50
2018-08-25T04:51:22.667Z,22.50
2018-08-25T04:52:22.645Z,22.50
2018-08-25T04:53:22.638Z,22.50
2018-08-25T04:54:22.657Z,22.50
2018-08-25T04:55:22.612Z,22.50
2018-08-25T04:56:22.608Z,28.12
2018-08-25T04:57:22.592Z,28.12
2018-08-25T04:58:22.578Z,28.12
2018-08-25T04:59:22.587Z,22.50
2018-08-25T05:00:22.555Z,16.88
2018-08-25T05:01:22.540Z,16.88
2018-08-25T05:02:22.538Z,16.88
2018-08-25T05:03:22.517Z,16.88
2018-08-25T05:04:22.535Z,16.88
2018-08-25T05:05:22.497Z,16.88
2018-08-25T05:06:22.482Z,11.25
2018-08-25T05:07:22.475Z,11.25
2018-08-25T05:08:22.462Z,11.25
2018-08-25T05:09:22.475Z,11.25
2018-08-25T05:10:22.437Z,11.25
2018-08-25T05:11:22.432Z,11.25
2018-08-25T05:12:22.412Z,11.25
2018-08-25T05:13:22.407Z,11.25
2018-08-25T05:14:22.419Z,11.25
2018-08-25T05:15:22.381Z,11.25
2018-08-25T05:16:22.365Z,11.25
2018-08-25T05:17:22.357Z,11.25
2018-08-25T05:18:22.347Z,11.25
2018-08-25T05:19:22.368Z,11.25
2018-08-25T05:20:22.324Z,11.25
2018-08-25T05:21:22.308Z,11.25
2018-08-25T05:22:22.304Z,16.88
2018-08-25T05:23:22.288Z,28.12
2018-08-25T05:24:22.278Z,22.50
2018-08-25T05:25:22.289Z,16.88
2018-08-25T05:26:22.256Z,11.25
2018-08-25T05:27:22.238Z,11.25
2018-08-25T05:28:22.234Z,5.62
2018-08-25T05:29:22.215Z,11.25
2018-08-25T05:30:22.236Z,16.88
2018-08-25T05:31:22.197Z,28.12
2018-08-25T05:32:22.189Z,39.38
2018-08-25T05:33:22.174Z,39.38
2018-08-25T05:34:22.164Z,50.62
2018-08-25T05:35:22.173Z,45.00
2018-08-25T05:36:22.138Z,33.75
2018-08-25T05:37:22.128Z,33.75
2018-08-25T05:38:22.107Z,45.00
2018-08-25T05:39:22.101Z,67.50
2018-08-25T05:40:22.108Z,101.25
2018-08-25T05:41:22.076Z,112.50
2018-08-25T05:42:22.061Z,118.12
2018-08-25T05:43:22.049Z,123.75
2018-08-25T05:44:22.128Z,112.50
2018-08-25T05:45:22.049Z,123.75
2018-08-25T05:46:22.017Z,129.38
2018-08-25T05:47:22.007Z,174.38
2018-08-25T05:48:21.993Z,180.00
2018-08-25T05:49:21.976Z,208.12
2018-08-25T05:50:21.993Z,196.88
2018-08-25T05:51:21.967Z,157.50
2018-08-25T05:52:21.944Z,151.88
2018-08-25T05:53:21.927Z,157.50
2018-08-25T05:54:21.918Z,208.12
2018-08-25T05:55:21.935Z,253.12
2018-08-25T05:56:21.891Z,270.00
2018-08-25T05:57:21.887Z,292.50
2018-08-25T05:58:21.865Z,247.50
2018-08-25T05:59:21.853Z,241.88
2018-08-25T06:00:21.874Z,258.75
2018-08-25T06:01:21.829Z,292.50
2018-08-25T06:02:21.829Z,309.38
2018-08-25T06:03:21.806Z,309.38
2018-08-25T06:04:21.849Z,337.50
2018-08-25T06:05:21.805Z,326.25
2018-08-25T06:06:21.779Z,241.88
2018-08-25T06:07:21.763Z,225.00
2018-08-25T06:08:21.757Z,298.12
2018-08-25T06:09:21.740Z,241.88
2018-08-25T06:10:21.756Z,180.00
2018-08-25T06:11:21.711Z,208.12
2018-08-25T06:12:21.707Z,275.62
2018-08-25T06:13:21.827Z,241.88
2018-08-25T06:14:21.685Z,275.62
2018-08-25T06:15:21.671Z,315.00
2018-08-25T06:16:21.683Z,326.25
2018-08-25T06:17:21.643Z,320.62
2018-08-25T06:18:21.636Z,241.88
2018-08-25T06:19:21.688Z,326.25
2018-08-25T06:20:21.606Z,450.00
2018-08-25T06:21:21.621Z,483.75
2018-08-25T06:22:21.582Z,534.38
2018-08-25T06:23:21.576Z,455.62
2018-08-25T06:24:21.581Z,331.88
2018-08-25T06:25:21.547Z,427.50
2018-08-25T06:26:21.568Z,523.12
2018-08-25T06:27:21.533Z,573.75
2018-08-25T06:28:21.512Z,517.50
2018-08-25T06:29:21.508Z,444.38
2018-08-25T06:30:21.494Z,371.25
2018-08-25T06:31:21.504Z,416.25
2018-08-25T06:32:21.469Z,466.88
2018-08-25T06:33:21.500Z,556.88
2018-08-25T06:34:21.476Z,562.50
2018-08-25T06:35:21.436Z,540.00
2018-08-25T06:36:21.444Z,455.62
2018-08-25T06:37:21.414Z,331.88
2018-08-25T06:38:21.404Z,264.38
2018-08-25T06:39:21.396Z,264.38
2018-08-25T06:40:21.380Z,258.75
2018-08-25T06:41:21.394Z,253.12
2018-08-25T06:42:21.350Z,270.00
2018-08-25T06:43:21.457Z,258.75
2018-08-25T06:44:21.330Z,241.88
2018-08-25T06:45:21.313Z,236.25
2018-08-25T06:46:21.335Z,230.62
2018-08-25T06:47:21.339Z,219.38
2018-08-25T06:48:21.294Z,196.88
2018-08-25T06:49:21.289Z,219.38
2018-08-25T06:50:21.255Z,202.50
2018-08-25T06:51:21.459Z,219.38
2018-08-25T06:52:21.232Z,309.38
2018-08-25T06:53:21.258Z,421.88
2018-08-25T06:54:21.215Z,399.38
2018-08-25T06:55:21.197Z,315.00
2018-08-25T06:56:21.216Z,382.50
2018-08-25T06:57:21.180Z,393.75
2018-08-25T06:58:21.165Z,354.38
2018-08-25T06:59:21.173Z,315.00
2018-08-25T07:00:21.147Z,275.62
2018-08-25T07:01:21.172Z,225.00
2018-08-25T07:02:21.119Z,213.75
2018-08-25T07:03:21.110Z,253.12
2018-08-25T07:04:21.099Z,309.38
2018-08-25T07:05:21.081Z,354.38
2018-08-25T07:06:21.139Z,354.38
2018-08-25T07:07:21.081Z,399.38
2018-08-25T07:08:21.055Z,472.50
2018-08-25T07:09:21.040Z,506.25
2018-08-25T07:10:21.032Z,450.00
2018-08-25T07:11:21.019Z,568.12
2018-08-25T07:12:21.020Z,714.38
2018-08-25T07:13:20.990Z,703.12
2018-08-25T07:14:21.008Z,596.25
2018-08-25T07:15:20.965Z,601.88
2018-08-25T07:16:20.962Z,596.25
2018-08-25T07:17:20.964Z,641.25
2018-08-25T07:18:20.939Z,708.75
2018-08-25T07:19:20.922Z,708.75
2018-08-25T07:20:20.911Z,663.75
2018-08-25T07:21:20.900Z,573.75
2018-08-25T07:22:20.938Z,461.25
2018-08-25T07:23:20.935Z,331.88
2018-08-25T07:24:20.866Z,270.00
2018-08-25T07:25:20.854Z,270.00
2018-08-25T07:26:20.993Z,371.25
2018-08-25T07:27:20.983Z,405.00
2018-08-25T07:28:20.895Z,500.62
2018-08-25T07:29:20.801Z,495.00
2018-08-25T07:30:20.797Z,388.12
2018-08-25T07:31:20.814Z,382.50
2018-08-25T07:32:20.840Z,348.75
2018-08-25T07:33:20.753Z,376.88
2018-08-25T07:34:20.745Z,365.62
2018-08-25T07:35:20.776Z,489.38
2018-08-25T07:36:20.800Z,506.25
2018-08-25T07:37:20.860Z,393.75
2018-08-25T07:38:20.722Z,455.62
2018-08-25T07:39:20.687Z,433.12
2018-08-25T07:40:20.680Z,573.75
2018-08-25T07:41:20.662Z,866.25
2018-08-25T07:42:20.677Z,708.75
2018-08-25T07:43:20.664Z,630.00
2018-08-25T07:44:20.688Z,562.50
2018-08-25T07:45:20.670Z,973.12
2018-08-25T07:46:20.662Z,1434.38
2018-08-25T07:47:20.755Z,945.00
2018-08-25T07:48:20.664Z,686.25
2018-08-25T07:49:20.569Z,483.75
2018-08-25T07:50:20.554Z,303.75
2018-08-25T07:51:20.595Z,275.62
2018-08-25T07:52:20.549Z,191.25
2018-08-25T07:53:20.517Z,185.62
2018-08-25T07:54:20.507Z,140.62
2018-08-25T07:55:20.498Z,129.38
2018-08-25T07:56:20.481Z,168.75
2018-08-25T07:57:20.554Z,168.75
2018-08-25T07:58:20.516Z,196.88
2018-08-25T07:59:20.586Z,213.75
2018-08-25T08:00:20.440Z,309.38
2018-08-25T08:01:20.486Z,450.00
2018-08-25T08:02:20.434Z,663.75
2018-08-25T08:03:20.406Z,2030.62
2018-08-25T08:04:20.420Z,939.38
2018-08-25T08:05:20.472Z,2413.12
2018-08-25T08:06:20.362Z,2379.38
2018-08-25T08:07:20.374Z,472.50
2018-08-25T08:08:20.345Z,601.88
2018-08-25T08:09:20.348Z,630.00
2018-08-25T08:10:20.323Z,669.38
2018-08-25T08:11:20.302Z,1141.88
2018-08-25T08:12:20.411Z,1479.38
2018-08-25T08:13:20.285Z,2947.50
2018-08-25T08:14:20.269Z,2711.25
2018-08-25T08:15:20.266Z,2418.75
2018-08-25T08:16:20.256Z,2671.88
2018-08-25T08:17:20.236Z,2863.12
2018-08-25T08:18:20.252Z,2683.12
2018-08-25T08:19:20.212Z,2851.88
2018-08-25T08:20:20.198Z,2885.62
2018-08-25T08:21:20.190Z,973.12
2018-08-25T08:22:20.176Z,1929.38
2018-08-25T08:23:20.196Z,3256.88
2018-08-25T08:24:20.150Z,928.12
2018-08-25T08:25:20.146Z,675.00
2018-08-25T08:26:20.132Z,630.00
2018-08-25T08:27:20.124Z,444.38
2018-08-25T08:28:20.131Z,478.12
2018-08-25T08:29:20.100Z,607.50
2018-08-25T08:30:20.087Z,2345.62
2018-08-25T08:31:20.066Z,2255.62
2018-08-25T08:32:20.144Z,2722.50
2018-08-25T08:33:20.142Z,2210.62
2018-08-25T08:34:20.099Z,1552.50
2018-08-25T08:35:20.026Z,1445.62
2018-08-25T08:36:20.015Z,1884.38
2018-08-25T08:37:20.056Z,1372.50
2018-08-25T08:38:20.054Z,1597.50
2018-08-25T08:39:20.001Z,1305.00
2018-08-25T08:40:19.968Z,2171.25
2018-08-25T08:41:19.993Z,1158.75
2018-08-25T08:42:19.999Z,1175.62
2018-08-25T08:43:19.930Z,1282.50
2018-08-25T08:44:19.940Z,1248.75
2018-08-25T08:45:19.945Z,1091.25
2018-08-25T08:46:19.956Z,725.62
2018-08-25T08:47:19.922Z,601.88
2018-08-25T08:48:19.873Z,500.62
2018-08-25T08:49:19.997Z,489.38
2018-08-25T08:50:19.895Z,388.12
2018-08-25T08:51:19.838Z,253.12
2018-08-25T08:52:19.825Z,219.38
2018-08-25T08:53:19.808Z,230.62
2018-08-25T08:54:19.829Z,247.50
2018-08-25T08:55:19.787Z,196.88
2018-08-25T08:56:19.779Z,225.00
2018-08-25T08:57:19.772Z,230.62
2018-08-25T08:58:19.853Z,270.00
2018-08-25T08:59:19.765Z,376.88
2018-08-25T09:00:19.736Z,511.88
2018-08-25T09:01:19.719Z,624.38
2018-08-25T09:02:19.704Z,663.75
2018-08-25T09:03:19.762Z,675.00
2018-08-25T09:04:19.710Z,697.50
2018-08-25T09:05:19.674Z,703.12
2018-08-25T09:06:19.659Z,630.00
2018-08-25T09:07:19.655Z,427.50
2018-08-25T09:08:19.634Z,286.88
2018-08-25T09:09:19.653Z,253.12
2018-08-25T09:10:19.610Z,286.88
2018-08-25T09:11:19.627Z,354.38
2018-08-25T09:12:19.596Z,393.75
2018-08-25T09:13:19.576Z,292.50
2018-08-25T09:14:19.595Z,270.00
2018-08-25T09:15:19.553Z,320.62
2018-08-25T09:16:19.601Z,405.00
2018-08-25T09:17:19.614Z,433.12
2018-08-25T09:18:19.524Z,686.25
2018-08-25T09:19:19.554Z,720.00
2018-08-25T09:20:19.498Z,961.88
2018-08-25T09:21:19.485Z,1749.38
2018-08-25T09:22:19.480Z,1901.25
2018-08-25T09:23:19.463Z,1428.75
2018-08-25T09:24:19.448Z,1040.62
2018-08-25T09:25:19.753Z,826.88
2018-08-25T09:26:19.486Z,866.25
2018-08-25T09:27:19.470Z,961.88
2018-08-25T09:28:19.404Z,1321.88
2018-08-25T09:29:19.398Z,1299.38
2018-08-25T09:30:19.407Z,1102.50
2018-08-25T09:31:19.372Z,950.62
2018-08-25T09:32:19.353Z,624.38
2018-08-25T09:33:19.407Z,585.00
2018-08-25T09:34:19.334Z,810.00
2018-08-25T09:35:19.337Z,1141.88
2018-08-25T09:36:19.358Z,1811.25
2018-08-25T09:37:19.341Z,1113.75
2018-08-25T09:38:19.280Z,939.38
2018-08-25T09:39:19.278Z,1012.50
2018-08-25T09:40:19.289Z,1175.62
2018-08-25T09:41:19.248Z,860.62
2018-08-25T09:42:19.240Z,708.75
2018-08-25T09:43:19.223Z,781.88
2018-08-25T09:44:19.219Z,781.88
2018-08-25T09:45:19.229Z,624.38
2018-08-25T09:46:19.192Z,410.62
2018-08-25T09:47:19.181Z,247.50
2018-08-25T09:48:19.169Z,174.38
2018-08-25T09:49:19.153Z,140.62
2018-08-25T09:50:19.174Z,118.12
2018-08-25T09:51:19.132Z,140.62
2018-08-25T09:52:19.123Z,225.00
2018-08-25T09:53:19.123Z,348.75
2018-08-25T09:54:19.096Z,489.38
2018-08-25T09:55:19.110Z,590.62
2018-08-25T09:56:19.072Z,652.50
2018-08-25T09:57:19.062Z,675.00
2018-08-25T09:58:19.055Z,736.88
2018-08-25T09:59:19.038Z,826.88
2018-08-25T10:00:19.052Z,1057.50
2018-08-25T10:01:19.021Z,1372.50
2018-08-25T10:02:19.005Z,1085.62
2018-08-25T10:03:18.996Z,1102.50
2018-08-25T10:04:18.976Z,883.12
2018-08-25T10:05:19.046Z,810.00
2018-08-25T10:06:18.958Z,613.12
2018-08-25T10:07:18.946Z,478.12
2018-08-25T10:08:18.932Z,427.50
2018-08-25T10:09:18.916Z,433.12
2018-08-25T10:10:18.935Z,478.12
2018-08-25T10:11:18.901Z,511.88
2018-08-25T10:12:18.882Z,528.75
2018-08-25T10:13:18.877Z,495.00
2018-08-25T10:14:18.857Z,466.88
2018-08-25T10:15:18.872Z,568.12
2018-08-25T10:16:18.843Z,956.25
2018-08-25T10:17:18.822Z,939.38
2018-08-25T10:18:18.819Z,1108.12
2018-08-25T10:19:18.804Z,3048.75
2018-08-25T10:20:18.811Z,1659.38
2018-08-25T10:21:18.789Z,1366.88
2018-08-25T10:22:18.776Z,1788.75
2018-08-25T10:23:18.790Z,1490.62
2018-08-25T10:24:18.741Z,1726.88
2018-08-25T10:25:18.763Z,3690.00
2018-08-25T10:26:18.744Z,1726.88
2018-08-25T10:27:18.711Z,3785.62
2018-08-25T10:28:18.697Z,1321.88
2018-08-25T10:29:18.681Z,810.00
2018-08-25T10:30:18.682Z,517.50
2018-08-25T10:31:18.686Z,348.75
2018-08-25T10:32:18.651Z,275.62
2018-08-25T10:33:18.644Z,225.00
2018-08-25T10:34:18.622Z,191.25
2018-08-25T10:35:18.613Z,185.62
2018-08-25T10:36:18.832Z,191.25
2018-08-25T10:37:18.596Z,225.00
2018-08-25T10:38:18.575Z,292.50
2018-08-25T10:39:18.581Z,365.62
2018-08-25T10:40:18.555Z,427.50
2018-08-25T10:41:18.564Z,483.75
2018-08-25T10:42:19.564Z,517.50
2018-08-25T10:43:18.529Z,551.25
2018-08-25T10:44:18.547Z,658.12
2018-08-25T10:45:18.497Z,810.00
2018-08-25T10:46:18.512Z,1428.75
2018-08-25T10:47:18.469Z,1237.50
2018-08-25T10:48:18.468Z,1080.00
2018-08-25T10:49:18.455Z,1209.38
2018-08-25T10:50:18.437Z,1001.25
2018-08-25T10:51:18.456Z,810.00
2018-08-25T10:52:18.414Z,742.50
2018-08-25T10:53:18.407Z,753.75
2018-08-25T10:54:18.391Z,804.38
2018-08-25T10:55:18.380Z,838.12
2018-08-25T10:56:18.392Z,1063.12
2018-08-25T10:57:18.355Z,1012.50
2018-08-25T10:58:18.352Z,939.38
2018-08-25T10:59:18.333Z,984.38
2018-08-25T11:00:18.379Z,1265.62
2018-08-25T11:01:18.388Z,2846.25
2018-08-25T11:02:18.297Z,1552.50
2018-08-25T11:03:18.284Z,2587.50
2018-08-25T11:04:18.277Z,3892.50
2018-08-25T11:05:18.262Z,2812.50
2018-08-25T11:06:18.280Z,1710.00
2018-08-25T11:07:18.238Z,3420.00
2018-08-25T11:08:18.230Z,2390.62
2018-08-25T11:09:18.220Z,1620.00
2018-08-25T11:10:18.209Z,945.00
2018-08-25T11:11:18.220Z,759.38
2018-08-25T11:12:18.178Z,652.50
2018-08-25T11:13:18.174Z,618.75
2018-08-25T11:14:18.159Z,590.62
2018-08-25T11:15:18.153Z,568.12
2018-08-25T11:16:18.161Z,523.12
2018-08-25T11:17:18.129Z,517.50
2018-08-25T11:18:18.108Z,703.12
2018-08-25T11:19:18.098Z,1951.88
2018-08-25T11:20:18.095Z,3251.25
2018-08-25T11:21:18.097Z,3161.25
2018-08-25T11:22:18.071Z,1749.38
2018-08-25T11:23:18.052Z,2019.38
2018-08-25T11:24:18.049Z,1147.50
2018-08-25T11:25:18.035Z,945.00
2018-08-25T11:26:18.049Z,793.12
2018-08-25T11:27:18.009Z,635.62
2018-08-25T11:28:17.994Z,540.00
2018-08-25T11:29:18.063Z,371.25
2018-08-25T11:30:17.970Z,253.12
2018-08-25T11:31:17.982Z,180.00
2018-08-25T11:32:17.956Z,157.50
2018-08-25T11:33:17.942Z,151.88
2018-08-25T11:34:17.929Z,168.75
2018-08-25T11:35:17.922Z,253.12
2018-08-25T11:36:17.923Z,376.88
2018-08-25T11:37:17.982Z,466.88
2018-08-25T11:38:17.883Z,534.38
2018-08-25T11:39:17.869Z,613.12
2018-08-25T11:40:17.853Z,607.50
2018-08-25T11:41:17.885Z,523.12
2018-08-25T11:42:17.830Z,483.75
2018-08-25T11:43:17.826Z,450.00
2018-08-25T11:44:17.808Z,371.25
2018-08-25T11:45:17.797Z,298.12
2018-08-25T11:46:17.785Z,264.38
2018-08-25T11:47:17.798Z,247.50
2018-08-25T11:48:17.767Z,213.75
2018-08-25T11:49:17.757Z,191.25
2018-08-25T11:50:17.737Z,208.12
2018-08-25T11:51:17.732Z,236.25
2018-08-25T11:52:17.743Z,270.00
2018-08-25T11:53:17.701Z,309.38
2018-08-25T11:54:17.699Z,371.25
2018-08-25T11:55:17.677Z,450.00
2018-08-25T11:56:17.668Z,551.25
2018-08-25T11:57:17.684Z,652.50
2018-08-25T11:58:17.645Z,731.25
2018-08-25T11:59:17.649Z,759.38
2018-08-25T12:00:17.619Z,770.62
2018-08-25T12:01:17.607Z,821.25
2018-08-25T12:02:17.685Z,922.50
2018-08-25T12:03:17.608Z,1164.38
2018-08-25T12:04:17.575Z,1119.38
2018-08-25T12:05:17.566Z,1108.12
2018-08-25T12:06:17.551Z,1046.25
2018-08-25T12:07:17.562Z,973.12
2018-08-25T12:08:17.531Z,928.12
2018-08-25T12:09:17.514Z,939.38
2018-08-25T12:10:17.512Z,984.38
2018-08-25T12:11:17.498Z,1040.62
2018-08-25T12:12:17.498Z,1096.88
2018-08-25T12:13:17.467Z,1158.75
2018-08-25T12:14:17.454Z,1170.00
2018-08-25T12:15:17.452Z,1248.75
2018-08-25T12:16:17.454Z,2823.75
2018-08-25T12:17:17.441Z,3279.38
2018-08-25T12:18:17.414Z,3155.62
2018-08-25T12:19:17.404Z,3285.00
2018-08-25T12:20:17.383Z,3313.12
2018-08-25T12:21:17.381Z,3200.62
2018-08-25T12:22:17.384Z,3133.12
2018-08-25T12:23:17.348Z,3133.12
2018-08-25T12:24:17.345Z,3105.00
2018-08-25T12:25:17.325Z,2086.88
2018-08-25T12:26:17.321Z,3065.62
2018-08-25T12:27:17.325Z,2986.88
2018-08-25T12:28:17.300Z,2930.62
2018-08-25T12:29:17.279Z,590.62
2018-08-25T12:30:17.275Z,551.25
2018-08-25T12:31:17.258Z,528.75
2018-08-25T12:32:17.268Z,613.12
2018-08-25T12:33:17.239Z,838.12
2018-08-25T12:34:17.229Z,1203.75
2018-08-25T12:35:17.210Z,1243.12
2018-08-25T12:36:17.207Z,2694.38
2018-08-25T12:37:17.218Z,3228.75
2018-08-25T12:38:17.178Z,3105.00
2018-08-25T12:39:17.202Z,3060.00
2018-08-25T12:40:17.154Z,3065.62
2018-08-25T12:41:17.144Z,3093.75
2018-08-25T12:42:17.159Z,3026.25
2018-08-25T12:43:17.244Z,2998.12
2018-08-25T12:44:17.114Z,2930.62